TimeEDT,TemperatureF,Dew PointF,Humidity,Sea Level PressureIn,VisibilityMPH,Wind Direction,Wind SpeedMPH,Gust SpeedMPH,PrecipitationIn,Events,Conditions,WindDirDegrees,DateUTC
12:54 AM,44.1,32.0,63,30.04,10.0,West,8.1,-,N/A,,Partly Cloudy,270,2013-10-21 04:54:00
1:54 AM,44.1,33.1,65,30.05,10.0,West,8.1,-,N/A,,Overcast,260,2013-10-21 05:54:00
2:54 AM,44.1,33.1,65,30.06,10.0,West,8.1,-,N/A,,Overcast,260,2013-10-21 06:54:00
3:54 AM,44.1,32.0,63,30.06,10.0,West,8.1,-,N/A,,Scattered Clouds,260,2013-10-21 07:54:00
4:54 AM,44.1,32.0,63,30.07,10.0,West,9.2,-,N/A,,Clear,270,2013-10-21 08:54:00
5:54 AM,44.1,32.0,63,30.09,10.0,West,8.1,-,N/A,,Clear,270,2013-10-21 09:54:00
6:54 AM,44.1,33.1,65,30.10,10.0,West,9.2,-,N/A,,Clear,260,2013-10-21 10:54:00
7:54 AM,45.0,34.0,65,30.11,10.0,West,9.2,-,N/A,,Clear,270,2013-10-21 11:54:00
8:54 AM,48.9,36.0,61,30.13,10.0,WSW,9.2,-,N/A,,Partly Cloudy,250,2013-10-21 12:54:00
9:54 AM,53.1,36.0,52,30.12,10.0,WSW,10.4,-,N/A,,Clear,250,2013-10-21 13:54:00
10:54 AM,55.9,37.0,49,30.12,10.0,WSW,10.4,-,N/A,,Clear,250,2013-10-21 14:54:00
11:54 AM,57.9,37.0,46,30.11,10.0,WSW,12.7,21.9,N/A,,Clear,250,2013-10-21 15:54:00
12:54 PM,60.1,36.0,41,30.09,10.0,West,15.0,-,N/A,,Clear,260,2013-10-21 16:54:00
1:54 PM,61.0,35.1,38,30.06,10.0,West,13.8,19.6,N/A,,Clear,260,2013-10-21 17:54:00
2:54 PM,62.1,34.0,35,30.05,10.0,SW,15.0,-,N/A,,Clear,230,2013-10-21 18:54:00
3:54 PM,62.1,34.0,35,30.04,10.0,SSW,11.5,-,N/A,,Clear,200,2013-10-21 19:54:00
4:54 PM,61.0,36.0,39,30.04,10.0,SSW,9.2,-,N/A,,Clear,210,2013-10-21 20:54:00
5:54 PM,57.9,37.0,46,30.04,10.0,SW,5.8,-,N/A,,Clear,230,2013-10-21 21:54:00
6:54 PM,55.9,37.0,49,30.05,10.0,SSW,8.1,-,N/A,,Clear,200,2013-10-21 22:54:00
7:54 PM,53.1,37.0,55,30.05,10.0,SSW,10.4,-,N/A,,Clear,210,2013-10-21 23:54:00
8:54 PM,51.1,37.9,61,30.04,10.0,SW,11.5,-,N/A,,Clear,220,2013-10-22 00:54:00
9:54 PM,50.0,39.9,68,30.04,10.0,SW,12.7,-,N/A,,Clear,220,2013-10-22 01:54:00
10:54 PM,48.9,41.0,74,30.02,10.0,SW,10.4,-,N/A,,Clear,220,2013-10-22 02:54:00
11:54 PM,48.0,41.0,77,30.00,10.0,SW,10.4,-,N/A,,Clear,220,2013-10-22 03:54:00